Time;durP1;ratioP1;P1;durP2;ratioP2;P2;SDS_P1;SDS_P2;PMS_P1;PMS_P2;Temp;Humidity;BMP_temperature;BMP_pressure;BME280_temperature;BME280_humidity;BME280_pressure;Samples;Min_cycle;Max_cycle;Signal;HPM_P1;HPM_P2
2023/09/27 00:02:21;;;;;;;13.75;9.63;;;18.80;99.90;;;;;;5021564;28;20211;-74
2023/09/27 00:04:46;;;;;;;13.98;9.88;;;18.80;99.90;;;;;;5014557;28;20255;-74
2023/09/27 00:07:12;;;;;;;16.67;10.48;;;18.80;99.90;;;;;;5021214;28;20209;-73
2023/09/27 00:09:38;;;;;;;19.08;10.77;;;18.80;99.90;;;;;;5020027;28;20218;-73
2023/09/27 00:12:05;;;;;;;17.15;11.35;;;18.90;99.90;;;;;;5017263;28;20577;-73
2023/09/27 00:14:32;;;;;;;16.38;10.38;;;18.90;99.90;;;;;;5020535;28;20205;-73
2023/09/27 00:17:00;;;;;;;18.60;10.30;;;18.80;99.90;;;;;;5020456;28;20266;-74
2023/09/27 00:19:26;;;;;;;15.73;9.98;;;18.80;99.90;;;;;;5020258;28;20916;-74
2023/09/27 00:21:52;;;;;;;14.93;11.20;;;18.80;99.90;;;;;;5020898;28;20299;-71
2023/09/27 00:24:17;;;;;;;14.32;10.80;;;18.80;99.90;;;;;;5019023;28;20268;-74
2023/09/27 00:26:43;;;;;;;18.05;10.75;;;18.80;99.90;;;;;;5021717;28;20204;-73
2023/09/27 00:29:09;;;;;;;15.35;10.18;;;18.90;99.90;;;;;;5017293;28;20676;-74
2023/09/27 00:31:34;;;;;;;15.15;10.43;;;18.80;99.90;;;;;;5021808;28;20204;-73
2023/09/27 00:34:00;;;;;;;16.13;10.77;;;18.90;99.90;;;;;;5014162;28;20588;-73
2023/09/27 00:36:25;;;;;;;16.60;11.52;;;18.90;99.90;;;;;;5021860;28;20181;-73
2023/09/27 00:38:51;;;;;;;15.65;9.65;;;18.90;99.90;;;;;;5019184;28;20299;-73
2023/09/27 00:41:17;;;;;;;16.40;10.25;;;18.90;99.90;;;;;;5020189;28;20209;-73
2023/09/27 00:43:42;;;;;;;15.90;9.93;;;18.90;99.90;;;;;;5020003;28;20215;-73
2023/09/27 00:46:08;;;;;;;19.35;11.43;;;18.80;99.90;;;;;;5018296;28;20634;-71
2023/09/27 00:48:36;;;;;;;18.80;10.70;;;18.80;99.90;;;;;;5020666;28;20258;-73
2023/09/27 00:51:03;;;;;;;15.52;10.35;;;18.80;99.90;;;;;;5018234;28;20256;-73
2023/09/27 00:53:33;;;;;;;17.95;10.85;;;18.70;99.90;;;;;;5019542;28;20614;-71
2023/09/27 00:56:00;;;;;;;14.15;9.90;;;18.70;99.90;;;;;;5020913;28;20212;-73
2023/09/27 00:58:25;;;;;;;15.93;10.05;;;18.70;99.90;;;;;;5019678;28;20228;-73
2023/09/27 01:00:52;;;;;;;15.60;11.45;;;18.70;99.90;;;;;;5019228;28;20216;-71
2023/09/27 01:03:18;;;;;;;18.52;11.05;;;18.60;99.90;;;;;;5018643;28;20655;-73
2023/09/27 01:05:47;;;;;;;17.50;10.55;;;18.60;99.90;;;;;;5018226;28;20637;-73
2023/09/27 01:08:13;;;;;;;15.52;9.85;;;18.60;99.90;;;;;;5018613;28;20205;-74
2023/09/27 01:10:38;;;;;;;15.55;10.93;;;18.70;99.90;;;;;;5020084;28;20242;-74
2023/09/27 01:13:05;;;;;;;19.83;10.15;;;18.60;99.90;;;;;;5017986;28;20251;-74
2023/09/27 01:15:32;;;;;;;16.73;10.23;;;18.60;99.90;;;;;;5017914;28;20187;-73
2023/09/27 01:18:00;;;;;;;18.98;11.52;;;18.60;99.90;;;;;;5022076;28;20239;-72
2023/09/27 01:20:27;;;;;;;16.83;11.40;;;18.60;99.90;;;;;;5024832;28;20196;-74
2023/09/27 01:23:03;;;;;;;14.60;10.45;;;18.60;99.90;;;;;;5022075;28;20571;-73
2023/09/27 01:25:34;;;;;;;19.05;12.23;;;18.50;99.90;;;;;;5021004;28;20274;-74
2023/09/27 01:28:01;;;;;;;16.35;10.90;;;18.50;99.90;;;;;;5021788;28;20702;-73
2023/09/27 01:30:34;;;;;;;17.92;10.65;;;18.50;99.90;;;;;;5020940;28;20627;-74
2023/09/27 01:33:05;;;;;;;16.67;10.63;;;18.50;99.90;;;;;;5024277;28;20278;-72
2023/09/27 01:35:32;;;;;;;16.60;10.80;;;18.50;99.90;;;;;;5019510;28;20233;-73
2023/09/27 01:37:58;;;;;;;16.88;11.15;;;18.50;99.90;;;;;;5023370;28;20270;-73
2023/09/27 01:40:27;;;;;;;17.83;11.65;;;18.50;99.90;;;;;;5020696;28;20209;-72
2023/09/27 01:42:53;;;;;;;18.27;11.75;;;18.40;99.90;;;;;;5023286;28;20224;-73
2023/09/27 01:45:19;;;;;;;15.40;10.50;;;18.40;99.90;;;;;;5020557;28;20185;-74
2023/09/27 01:47:44;;;;;;;19.42;10.85;;;18.40;99.90;;;;;;5024329;28;20219;-73
2023/09/27 01:50:12;;;;;;;15.35;10.30;;;18.40;99.90;;;;;;5019440;28;20621;-74
2023/09/27 01:52:38;;;;;;;19.55;11.70;;;18.40;99.90;;;;;;5024266;28;20694;-74
2023/09/27 01:55:04;;;;;;;16.40;10.48;;;18.40;99.90;;;;;;5019319;28;20209;-74
2023/09/27 01:57:30;;;;;;;18.55;11.48;;;18.30;99.90;;;;;;5024473;28;20652;-74
2023/09/27 01:59:56;;;;;;;17.65;10.82;;;18.30;99.90;;;;;;5021385;28;20201;-74
2023/09/27 02:02:22;;;;;;;19.15;10.98;;;18.30;99.90;;;;;;5018923;28;20266;-74
2023/09/27 02:04:47;;;;;;;20.27;10.45;;;18.30;99.90;;;;;;5021851;28;20615;-74
2023/09/27 02:07:13;;;;;;;19.63;11.38;;;18.30;99.90;;;;;;5018386;28;20282;-73
2023/09/27 02:09:38;;;;;;;19.63;12.02;;;18.20;99.90;;;;;;5022425;28;20607;-74
2023/09/27 02:12:04;;;;;;;16.40;10.48;;;18.30;99.90;;;;;;5016022;28;20197;-74
2023/09/27 02:14:30;;;;;;;16.00;11.57;;;18.20;99.90;;;;;;5002678;28;20201;-74
2023/09/27 02:16:55;;;;;;;16.33;10.82;;;18.20;99.90;;;;;;5023151;28;20702;-74
2023/09/27 02:19:21;;;;;;;14.70;10.95;;;18.20;99.90;;;;;;5019175;28;20220;-74
2023/09/27 02:21:47;;;;;;;16.67;10.90;;;18.10;99.90;;;;;;5023457;28;21255;-73
2023/09/27 02:24:12;;;;;;;18.65;11.88;;;18.10;99.90;;;;;;5020262;28;20590;-74
2023/09/27 02:26:38;;;;;;;17.55;11.68;;;18.10;99.90;;;;;;5023347;28;20582;-71
2023/09/27 02:29:07;;;;;;;20.48;11.77;;;18.10;99.90;;;;;;5020327;28;20209;-72
2023/09/27 02:31:32;;;;;;;27.98;12.73;;;18.10;99.90;;;;;;5022833;28;20300;-74
2023/09/27 02:33:58;;;;;;;20.80;12.40;;;18.00;99.90;;;;;;5020847;28;20240;-73
2023/09/27 02:36:23;;;;;;;16.60;11.00;;;18.00;99.90;;;;;;5021079;28;20267;-74
2023/09/27 02:38:49;;;;;;;16.90;11.73;;;18.00;99.90;;;;;;5021444;28;20216;-74
2023/09/27 02:41:15;;;;;;;16.50;11.35;;;18.00;99.90;;;;;;5018612;28;20285;-73
2023/09/27 02:43:40;;;;;;;19.70;11.45;;;18.00;99.90;;;;;;5020325;28;20507;-74
2023/09/27 02:46:06;;;;;;;18.45;10.68;;;18.00;99.90;;;;;;5018568;28;20236;-73
2023/09/27 02:48:32;;;;;;;17.70;11.57;;;18.00;99.90;;;;;;5020631;28;20177;-74
2023/09/27 02:50:58;;;;;;;18.88;11.23;;;17.90;99.90;;;;;;5022907;28;20181;-74
2023/09/27 02:53:24;;;;;;;16.88;11.68;;;17.90;99.90;;;;;;5019296;28;20216;-74
2023/09/27 02:55:49;;;;;;;16.80;11.52;;;17.90;99.90;;;;;;5023071;28;20200;-73
2023/09/27 02:58:15;;;;;;;20.52;12.95;;;17.90;99.90;;;;;;5019579;28;20228;-74
2023/09/27 03:00:42;;;;;;;22.42;11.27;;;17.90;99.90;;;;;;5022300;28;20620;-74
2023/09/27 03:03:11;;;;;;;18.35;10.70;;;17.80;99.90;;;;;;5020646;28;20300;-72
2023/09/27 03:05:38;;;;;;;18.63;11.13;;;17.80;99.90;;;;;;5022604;28;20570;-74
2023/09/27 03:08:04;;;;;;;16.83;10.75;;;17.80;99.90;;;;;;5018973;28;20240;-74
2023/09/27 03:10:30;;;;;;;16.83;11.13;;;17.90;99.90;;;;;;5021602;28;20213;-74
2023/09/27 03:12:58;;;;;;;15.73;10.68;;;17.90;99.90;;;;;;5019020;28;20274;-74
2023/09/27 03:15:24;;;;;;;17.55;10.80;;;17.70;99.90;;;;;;5022310;28;20173;-73
2023/09/27 03:17:50;;;;;;;20.52;11.48;;;17.70;99.90;;;;;;5017912;28;20288;-73
2023/09/27 03:20:17;;;;;;;15.32;10.55;;;17.70;99.90;;;;;;5020933;28;20307;-74
2023/09/27 03:22:43;;;;;;;16.58;11.32;;;17.70;99.90;;;;;;5020268;28;20216;-74
2023/09/27 03:25:09;;;;;;;18.65;11.98;;;17.70;99.90;;;;;;5021476;28;20563;-72
2023/09/27 03:27:35;;;;;;;18.40;10.73;;;17.70;99.90;;;;;;5020093;28;20231;-74
2023/09/27 03:30:01;;;;;;;17.75;11.20;;;17.70;99.90;;;;;;5022554;28;20181;-74
2023/09/27 03:32:27;;;;;;;14.95;10.82;;;17.70;99.90;;;;;;5021091;28;20219;-74
2023/09/27 03:34:52;;;;;;;16.88;11.18;;;17.60;99.90;;;;;;5022661;28;20207;-72
2023/09/27 03:37:18;;;;;;;15.80;10.90;;;17.60;99.90;;;;;;5017983;28;20245;-74
2023/09/27 03:39:44;;;;;;;19.30;10.68;;;17.60;99.90;;;;;;5020982;28;20270;-74
2023/09/27 03:42:09;;;;;;;19.40;12.00;;;17.60;99.90;;;;;;5019522;28;20292;-74
2023/09/27 03:44:35;;;;;;;18.25;11.60;;;17.60;99.90;;;;;;5023144;28;20207;-74
2023/09/27 03:47:01;;;;;;;18.70;11.48;;;17.50;99.90;;;;;;5020210;28;20596;-74
2023/09/27 03:49:27;;;;;;;21.02;11.25;;;17.50;99.90;;;;;;5026139;28;20205;-73
2023/09/27 03:51:52;;;;;;;19.25;11.50;;;17.50;99.90;;;;;;5018916;28;20623;-72
2023/09/27 03:54:18;;;;;;;21.23;11.93;;;17.60;99.90;;;;;;5018921;28;20181;-72
2023/09/27 03:56:46;;;;;;;21.83;13.57;;;17.60;99.90;;;;;;5017135;28;20422;-74
2023/09/27 03:59:13;;;;;;;22.63;12.00;;;17.50;99.90;;;;;;5019892;28;20223;-72
2023/09/27 04:01:39;;;;;;;22.40;11.80;;;17.50;99.90;;;;;;5019216;28;20211;-74
2023/09/27 04:04:05;;;;;;;20.38;11.40;;;17.50;99.90;;;;;;5021601;28;20302;-74
2023/09/27 04:06:31;;;;;;;21.90;12.10;;;17.40;99.90;;;;;;5018209;28;20275;-74
2023/09/27 04:08:56;;;;;;;18.75;11.30;;;17.40;99.90;;;;;;5016742;28;20172;-74
2023/09/27 04:11:22;;;;;;;18.23;11.93;;;17.30;99.90;;;;;;5018038;28;20205;-74
2023/09/27 04:13:48;;;;;;;22.65;12.75;;;17.30;99.90;;;;;;5015243;28;20687;-74
2023/09/27 04:16:14;;;;;;;19.38;11.32;;;17.40;99.90;;;;;;5018967;28;20221;-72
2023/09/27 04:18:40;;;;;;;18.15;11.77;;;17.30;99.90;;;;;;5019546;28;20698;-73
2023/09/27 04:21:09;;;;;;;20.25;12.32;;;17.30;99.90;;;;;;5018887;28;20184;-74
2023/09/27 04:23:36;;;;;;;17.98;11.75;;;17.30;99.90;;;;;;5021296;28;20208;-74
2023/09/27 04:26:05;;;;;;;19.05;11.60;;;17.30;99.90;;;;;;5019851;28;20217;-74
2023/09/27 04:28:30;;;;;;;19.73;11.93;;;17.30;99.90;;;;;;5026786;28;20624;-73
2023/09/27 04:30:56;;;;;;;16.77;11.18;;;17.30;99.90;;;;;;5016330;28;20307;-74
2023/09/27 04:33:22;;;;;;;18.48;11.02;;;17.40;99.90;;;;;;5018973;28;20254;-73
2023/09/27 04:35:48;;;;;;;20.08;12.25;;;17.40;99.90;;;;;;5019397;28;20201;-74
2023/09/27 04:38:14;;;;;;;17.77;11.55;;;17.40;99.90;;;;;;5021472;28;20657;-74
2023/09/27 04:40:40;;;;;;;15.63;10.82;;;17.40;99.90;;;;;;5017285;28;20219;-74
2023/09/27 04:43:06;;;;;;;16.38;10.98;;;17.40;99.90;;;;;;5021584;28;20216;-74
2023/09/27 04:45:33;;;;;;;15.77;11.05;;;17.40;99.90;;;;;;5018051;28;20674;-74
2023/09/27 04:47:59;;;;;;;16.27;11.20;;;17.40;99.90;;;;;;5015426;28;20615;-74
2023/09/27 04:50:25;;;;;;;18.58;11.07;;;17.40;99.90;;;;;;5020934;28;20213;-72
2023/09/27 04:52:51;;;;;;;16.98;11.57;;;17.30;99.90;;;;;;5024147;28;20211;-72
2023/09/27 04:55:17;;;;;;;19.80;10.82;;;17.30;99.90;;;;;;5021174;28;20307;-72
2023/09/27 04:57:43;;;;;;;16.90;11.32;;;17.30;99.90;;;;;;5023570;28;20189;-74
2023/09/27 05:00:18;;;;;;;14.57;9.82;;;17.30;99.90;;;;;;5023839;28;20597;-74
2023/09/27 05:02:45;;;;;;;18.50;10.50;;;17.30;99.90;;;;;;5021470;28;20208;-74
2023/09/27 05:05:11;;;;;;;20.30;12.25;;;17.40;99.90;;;;;;5022277;28;20227;-74
2023/09/27 05:07:37;;;;;;;14.38;10.13;;;17.40;99.90;;;;;;5021616;28;20212;-74
2023/09/27 05:10:03;;;;;;;17.17;11.35;;;17.40;99.90;;;;;;5022826;28;20216;-74
2023/09/27 05:12:28;;;;;;;17.70;10.57;;;17.40;99.90;;;;;;5022553;28;20201;-73
2023/09/27 05:14:56;;;;;;;15.98;10.77;;;17.40;99.90;;;;;;5023797;28;20197;-73
2023/09/27 05:17:22;;;;;;;14.70;10.00;;;17.40;99.90;;;;;;5023082;28;20219;-73
2023/09/27 05:19:48;;;;;;;16.50;10.95;;;17.50;99.90;;;;;;5022760;28;20587;-73
2023/09/27 05:22:14;;;;;;;16.65;9.15;;;17.50;99.90;;;;;;5023759;28;20216;-74
2023/09/27 05:24:39;;;;;;;18.08;10.48;;;17.60;99.90;;;;;;5021853;28;20177;-74
2023/09/27 05:27:07;;;;;;;15.55;9.77;;;17.70;99.90;;;;;;5025093;28;20176;-73
2023/09/27 05:29:33;;;;;;;14.65;10.80;;;17.60;99.90;;;;;;5021177;28;20209;-73
2023/09/27 05:31:58;;;;;;;15.10;9.90;;;17.70;99.90;;;;;;5020575;28;20220;-74
2023/09/27 05:34:24;;;;;;;16.38;9.90;;;17.70;99.90;;;;;;5016955;28;20209;-73
2023/09/27 05:36:50;;;;;;;111.22;18.20;;;17.80;99.90;;;;;;5023280;28;20230;-73
2023/09/27 05:39:16;;;;;;;21.95;10.75;;;17.90;99.90;;;;;;5021061;28;20259;-74
2023/09/27 05:41:42;;;;;;;15.13;9.80;;;17.90;99.90;;;;;;5022125;28;20236;-74
2023/09/27 05:44:08;;;;;;;12.93;9.43;;;17.90;99.90;;;;;;5020802;28;20227;-74
2023/09/27 05:46:33;;;;;;;18.08;9.98;;;17.90;99.90;;;;;;5022519;28;20283;-74
2023/09/27 05:49:04;;;;;;;16.42;9.88;;;17.90;99.90;;;;;;5023067;28;20717;-74
2023/09/27 05:51:30;;;;;;;16.20;9.57;;;18.00;99.90;;;;;;5020608;28;20214;-73
2023/09/27 05:53:56;;;;;;;14.95;9.63;;;18.00;99.90;;;;;;5021845;28;20256;-73
2023/09/27 05:56:22;;;;;;;14.27;10.10;;;18.10;99.90;;;;;;5023030;28;20907;-74
2023/09/27 05:58:48;;;;;;;14.35;10.13;;;18.20;99.90;;;;;;5017164;28;20228;-74
2023/09/27 06:01:19;;;;;;;18.17;9.95;;;18.80;99.90;;;;;;5022189;28;20699;-74
2023/09/27 06:03:45;;;;;;;14.45;9.05;;;19.20;99.90;;;;;;5019853;28;20280;-74
2023/09/27 06:06:12;;;;;;;12.25;8.80;;;20.20;99.90;;;;;;5022389;28;20229;-73
2023/09/27 06:08:37;;;;;;;11.07;8.40;;;21.70;99.90;;;;;;5020101;28;20606;-74
2023/09/27 06:11:03;;;;;;;10.75;7.35;;;23.00;99.90;;;;;;5023616;28;20219;-72
2023/09/27 06:13:29;;;;;;;11.45;7.30;;;24.00;99.90;;;;;;5020329;28;20217;-72
2023/09/27 06:15:54;;;;;;;10.38;7.85;;;24.40;99.90;;;;;;5019618;28;20212;-72
2023/09/27 06:18:21;;;;;;;11.07;7.80;;;24.60;99.90;;;;;;5021377;28;20205;-72
2023/09/27 06:20:47;;;;;;;22.27;9.05;;;24.40;99.90;;;;;;5019518;28;20200;-72
2023/09/27 06:23:13;;;;;;;19.67;8.70;;;24.40;99.90;;;;;;5023100;28;20309;-72
2023/09/27 06:25:43;;;;;;;9.25;7.13;;;24.90;99.90;;;;;;5021184;28;20752;-72
2023/09/27 06:28:13;;;;;;;13.70;8.20;;;25.40;99.90;;;;;;5023204;28;20307;-72
2023/09/27 06:30:40;;;;;;;10.73;7.90;;;25.90;99.90;;;;;;5020501;28;20227;-72
2023/09/27 06:33:07;;;;;;;12.57;7.78;;;26.30;99.90;;;;;;5020870;28;20201;-73
2023/09/27 06:35:33;;;;;;;9.45;7.05;;;26.60;99.90;;;;;;5020617;28;20230;-73
2023/09/27 06:38:00;;;;;;;11.02;7.53;;;27.10;99.90;;;;;;5024359;28;20213;-72
2023/09/27 06:40:26;;;;;;;10.25;8.07;;;27.40;99.90;;;;;;5019689;28;20208;-72
2023/09/27 06:42:53;;;;;;;11.00;8.43;;;28.10;99.90;;;;;;5021773;28;20217;-72
2023/09/27 06:45:19;;;;;;;10.20;7.63;;;28.60;99.90;;;;;;5022428;28;20172;-73
2023/09/27 06:47:45;;;;;;;11.35;7.97;;;28.80;99.90;;;;;;5019872;28;20231;-73
2023/09/27 06:50:12;;;;;;;11.80;8.10;;;29.00;99.90;;;;;;5022506;28;20231;-73
2023/09/27 06:52:39;;;;;;;22.77;9.63;;;29.20;99.90;;;;;;5020358;28;20208;-72
2023/09/27 06:55:16;;;;;;;9.32;8.35;;;29.50;99.90;;;;;;5021168;28;20266;-73
2023/09/27 06:57:44;;;;;;;10.30;8.00;;;29.30;99.90;;;;;;5019690;28;20194;-73
2023/09/27 07:00:18;;;;;;;11.30;8.50;;;29.10;99.90;;;;;;5021084;28;20188;-72
2023/09/27 07:02:47;;;;;;;12.95;8.38;;;29.00;99.90;;;;;;5018798;28;20211;-73
2023/09/27 07:05:13;;;;;;;13.40;8.18;;;28.50;99.90;;;;;;5022589;28;20243;-73
2023/09/27 07:07:39;;;;;;;12.20;8.50;;;28.50;99.90;;;;;;5020401;28;20250;-73
2023/09/27 07:10:06;;;;;;;9.48;8.00;;;28.50;99.90;;;;;;5022384;28;20266;-73
2023/09/27 07:12:33;;;;;;;10.13;7.95;;;28.30;99.90;;;;;;5020704;28;20261;-71
2023/09/27 07:14:59;;;;;;;10.57;8.38;;;28.40;99.90;;;;;;5020678;28;20173;-73
2023/09/27 07:17:25;;;;;;;10.18;8.57;;;28.00;99.90;;;;;;5021696;28;20719;-73
2023/09/27 07:19:53;;;;;;;14.52;8.98;;;28.50;99.90;;;;;;5019130;28;20285;-71
2023/09/27 07:22:19;;;;;;;15.25;8.40;;;29.20;99.90;;;;;;5021229;28;20246;-73
2023/09/27 07:24:45;;;;;;;10.25;8.48;;;29.80;99.90;;;;;;5020546;28;20177;-73
2023/09/27 07:27:11;;;;;;;9.75;7.93;;;29.40;99.90;;;;;;5022971;28;20187;-72
2023/09/27 07:29:37;;;;;;;11.85;8.68;;;29.60;99.90;;;;;;5019545;28;20311;-73
2023/09/27 07:32:04;;;;;;;14.05;9.45;;;29.70;99.90;;;;;;5021166;28;20299;-72
2023/09/27 07:34:30;;;;;;;9.23;7.55;;;29.70;99.90;;;;;;5019034;28;20262;-71
2023/09/27 07:36:56;;;;;;;11.48;8.02;;;29.80;99.90;;;;;;5017516;28;20208;-73
2023/09/27 07:39:22;;;;;;;10.25;8.10;;;30.10;99.90;;;;;;5021869;28;20211;-73
2023/09/27 07:41:49;;;;;;;12.30;8.68;;;30.20;99.90;;;;;;5018386;28;20611;-71
2023/09/27 07:44:17;;;;;;;9.48;8.50;;;30.90;99.90;;;;;;5021975;28;20208;-73
2023/09/27 07:46:44;;;;;;;12.23;9.18;;;31.00;99.90;;;;;;5019479;28;20205;-73
2023/09/27 07:49:10;;;;;;;9.23;8.13;;;30.80;99.90;;;;;;5020157;28;20676;-72
2023/09/27 07:51:35;;;;;;;9.93;8.57;;;30.80;99.90;;;;;;5018772;28;20249;-72
2023/09/27 07:54:04;;;;;;;12.07;7.57;;;30.90;99.90;;;;;;5020151;28;20180;-72
2023/09/27 07:56:36;;;;;;;9.02;7.55;;;30.80;99.90;;;;;;5020167;28;20254;-73
2023/09/27 07:59:03;;;;;;;9.80;8.40;;;31.00;99.90;;;;;;5020004;28;20744;-72
2023/09/27 08:01:29;;;;;;;13.13;8.43;;;30.90;99.90;;;;;;5019361;28;20207;-73
2023/09/27 08:04:05;;;;;;;12.95;8.57;;;31.00;99.90;;;;;;5020503;28;20218;-72
2023/09/27 08:06:34;;;;;;;9.77;7.60;;;31.10;99.90;;;;;;5018931;28;20168;-73
2023/09/27 08:09:01;;;;;;;8.50;7.25;;;31.20;99.90;;;;;;5022093;28;20191;-73
2023/09/27 08:11:27;;;;;;;12.13;7.93;;;31.40;99.90;;;;;;5018051;28;20200;-73
2023/09/27 08:13:53;;;;;;;8.82;7.50;;;31.00;99.90;;;;;;5019625;28;20963;-72
2023/09/27 08:16:19;;;;;;;12.57;8.88;;;31.30;99.90;;;;;;5020823;28;20204;-73
2023/09/27 08:18:45;;;;;;;14.27;7.93;;;31.80;99.90;;;;;;5019979;28;20250;-73
2023/09/27 08:21:10;;;;;;;11.40;7.85;;;32.30;99.90;;;;;;5020472;28;20169;-73
2023/09/27 08:23:36;;;;;;;11.85;7.90;;;32.30;99.90;;;;;;5021557;28;20203;-73
2023/09/27 08:26:02;;;;;;;11.18;7.97;;;32.00;99.90;;;;;;5023703;28;20287;-73
2023/09/27 08:28:31;;;;;;;10.88;8.18;;;31.00;99.90;;;;;;5026751;28;20234;-73
2023/09/27 08:31:00;;;;;;;8.68;7.65;;;30.60;99.90;;;;;;5024106;28;20219;-73
2023/09/27 08:33:27;;;;;;;10.95;7.32;;;30.90;99.90;;;;;;5027770;28;20719;-73
2023/09/27 08:35:53;;;;;;;11.55;6.95;;;31.10;99.90;;;;;;5029982;28;20890;-72
2023/09/27 08:38:19;;;;;;;8.70;7.15;;;31.30;99.90;;;;;;5026836;28;20264;-73
2023/09/27 08:40:48;;;;;;;12.07;8.65;;;31.00;99.90;;;;;;5025559;28;21029;-72
2023/09/27 08:43:17;;;;;;;9.65;7.53;;;31.00;99.90;;;;;;5028136;28;20295;-73
2023/09/27 08:45:45;;;;;;;13.00;8.50;;;30.90;99.90;;;;;;5023614;28;20180;-72
2023/09/27 08:48:16;;;;;;;13.30;8.73;;;31.00;99.90;;;;;;5025195;28;20311;-72
2023/09/27 08:50:43;;;;;;;10.88;7.03;;;30.60;99.90;;;;;;5023456;28;20215;-72
2023/09/27 08:53:10;;;;;;;12.75;7.60;;;30.40;99.90;;;;;;5025628;28;20217;-73
2023/09/27 08:55:38;;;;;;;15.30;7.80;;;30.20;99.90;;;;;;5026520;28;20211;-73
2023/09/27 08:58:06;;;;;;;12.15;7.72;;;29.90;99.90;;;;;;5024819;28;20225;-72
2023/09/27 09:00:32;;;;;;;10.77;7.72;;;29.80;99.90;;;;;;5026299;28;20265;-72
2023/09/27 09:03:00;;;;;;;11.63;8.27;;;29.70;99.90;;;;;;5023301;28;20251;-73
2023/09/27 09:05:27;;;;;;;12.07;7.22;;;29.90;99.90;;;;;;5028312;28;20210;-73
2023/09/27 09:07:55;;;;;;;16.92;8.20;;;29.50;99.90;;;;;;5024404;28;20282;-72
2023/09/27 09:10:22;;;;;;;11.55;6.85;;;29.40;99.90;;;;;;5023341;28;20203;-72
2023/09/27 09:12:48;;;;;;;8.57;6.82;;;29.50;99.90;;;;;;5006944;28;20209;-72
2023/09/27 09:15:40;;;;;;;8.27;5.55;;;29.50;99.90;;;;;;5027450;28;20712;-72
2023/09/27 09:18:10;;;;;;;10.77;5.03;;;29.50;99.90;;;;;;5026200;28;20244;-72
2023/09/27 09:20:51;;;;;;;10.90;5.32;;;29.40;99.90;;;;;;5023502;28;20209;-72
2023/09/27 09:23:33;;;;;;;12.32;6.32;;;29.70;99.90;;;;;;5028261;28;20208;-73
2023/09/27 09:26:00;;;;;;;8.43;6.35;;;29.40;99.90;;;;;;5024094;28;20208;-72
2023/09/27 09:28:26;;;;;;;9.25;5.32;;;28.50;99.90;;;;;;5025761;28;20737;-72
2023/09/27 09:30:54;;;;;;;10.70;6.18;;;29.10;99.90;;;;;;5025685;28;20236;-72
2023/09/27 09:33:20;;;;;;;9.85;6.57;;;29.20;99.90;;;;;;5025021;28;20221;-72
2023/09/27 09:35:47;;;;;;;8.32;6.10;;;29.10;99.90;;;;;;5023438;28;20287;-71
2023/09/27 09:38:23;;;;;;;8.75;5.45;;;29.20;99.90;;;;;;5023163;28;20757;-72
2023/09/27 09:41:01;;;;;;;7.95;5.35;;;29.10;99.90;;;;;;5020568;28;20777;-73
2023/09/27 09:43:38;;;;;;;9.95;5.97;;;29.10;99.90;;;;;;5019507;28;20235;-72
2023/09/27 09:46:06;;;;;;;8.77;5.10;;;28.60;99.90;;;;;;5019540;28;20350;-72
2023/09/27 09:48:34;;;;;;;9.55;5.68;;;28.60;99.90;;;;;;5023753;28;20184;-73
2023/09/27 09:51:06;;;;;;;7.93;5.97;;;28.80;99.90;;;;;;5021432;28;20231;-72
2023/09/27 09:53:40;;;;;;;8.88;6.53;;;29.00;99.90;;;;;;5023158;28;20286;-72
2023/09/27 09:56:07;;;;;;;8.73;5.22;;;28.90;99.90;;;;;;5023159;28;20221;-72
2023/09/27 09:58:35;;;;;;;8.63;4.55;;;29.20;99.90;;;;;;5022135;28;20212;-73
2023/09/27 10:01:03;;;;;;;7.30;4.75;;;28.40;99.90;;;;;;5020488;28;20221;-72
2023/09/27 10:03:36;;;;;;;9.48;5.18;;;28.70;99.90;;;;;;5020107;28;20770;-72
2023/09/27 10:06:02;;;;;;;11.00;6.00;;;29.20;99.90;;;;;;5021943;28;20187;-73
2023/09/27 10:08:34;;;;;;;5.07;3.80;;;28.90;99.90;;;;;;5021723;28;20703;-72
2023/09/27 10:11:03;;;;;;;4.03;3.60;;;28.40;99.90;;;;;;5020719;28;20221;-72
2023/09/27 10:13:33;;;;;;;6.60;3.85;;;27.50;99.90;;;;;;5022376;28;20250;-72
2023/09/27 10:16:00;;;;;;;7.05;4.63;;;27.40;99.90;;;;;;5018854;28;20223;-72
2023/09/27 10:18:33;;;;;;;6.78;4.80;;;27.90;99.90;;;;;;5023104;28;20612;-73
2023/09/27 10:21:09;;;;;;;5.78;4.35;;;27.90;99.90;;;;;;5018827;28;20205;-72
2023/09/27 10:23:46;;;;;;;7.97;4.63;;;27.10;99.90;;;;;;5019800;28;20215;-72
2023/09/27 10:26:34;;;;;;;6.72;4.22;;;27.20;99.90;;;;;;5021983;28;20200;-71
2023/09/27 10:29:06;;;;;;;9.05;4.68;;;27.30;99.90;;;;;;5019336;28;20212;-73
2023/09/27 10:31:58;;;;;;;6.45;4.45;;;27.40;99.90;;;;;;5022121;28;20275;-73
2023/09/27 10:34:29;;;;;;;6.97;4.95;;;27.60;99.90;;;;;;5004298;28;20239;-72
2023/09/27 10:36:59;;;;;;;6.68;4.10;;;27.90;99.90;;;;;;5023137;28;20691;-73
2023/09/27 10:39:25;;;;;;;5.43;4.60;;;27.80;99.90;;;;;;5020222;28;20205;-73
2023/09/27 10:41:52;;;;;;;6.22;4.38;;;27.70;99.90;;;;;;5022051;28;20240;-71
2023/09/27 10:44:31;;;;;;;7.32;3.90;;;27.70;99.90;;;;;;5019367;28;20231;-72
2023/09/27 10:47:04;;;;;;;5.22;3.92;;;27.10;99.90;;;;;;5019803;28;20694;-72
2023/09/27 10:49:43;;;;;;;5.65;4.32;;;27.50;99.90;;;;;;5022836;28;20220;-72
2023/09/27 10:52:16;;;;;;;6.38;4.50;;;27.70;99.90;;;;;;5018741;28;20244;-72
2023/09/27 10:54:42;;;;;;;5.65;4.03;;;27.90;99.90;;;;;;5022538;28;20173;-72
2023/09/27 10:57:08;;;;;;;8.35;4.55;;;28.00;99.90;;;;;;5020728;28;20254;-72
2023/09/27 10:59:34;;;;;;;8.00;4.28;;;28.30;99.90;;;;;;5023370;28;20219;-72
2023/09/27 11:02:00;;;;;;;9.32;4.32;;;28.40;99.90;;;;;;5016465;28;20259;-73
2023/09/27 11:04:26;;;;;;;4.30;3.42;;;27.70;99.90;;;;;;5022155;28;20212;-73
2023/09/27 11:06:53;;;;;;;9.15;5.57;;;27.80;99.90;;;;;;5019701;28;20243;-70
2023/09/27 11:09:19;;;;;;;6.47;3.83;;;27.60;99.90;;;;;;5021984;28;20179;-72
2023/09/27 11:11:54;;;;;;;4.35;3.65;;;27.60;99.90;;;;;;5020021;28;20256;-71
2023/09/27 11:14:25;;;;;;;11.10;4.65;;;27.60;99.90;;;;;;5019425;28;20200;-73
2023/09/27 11:16:51;;;;;;;5.95;3.58;;;27.60;99.90;;;;;;5016055;28;20200;-71
2023/09/27 11:19:27;;;;;;;5.05;3.83;;;27.10;99.90;;;;;;5019312;28;20224;-73
2023/09/27 11:21:53;;;;;;;5.47;3.67;;;27.30;99.90;;;;;;5016768;28;20227;-72
2023/09/27 11:24:18;;;;;;;8.88;3.90;;;27.60;99.90;;;;;;5020947;28;20227;-72
2023/09/27 11:26:44;;;;;;;7.60;3.15;;;27.30;99.90;;;;;;5022493;28;20266;-73
2023/09/27 11:29:10;;;;;;;5.38;3.38;;;27.70;99.90;;;;;;5018385;28;20258;-73
2023/09/27 11:31:39;;;;;;;3.90;2.80;;;28.00;99.90;;;;;;5020676;28;20295;-72
2023/09/27 11:34:19;;;;;;;5.38;3.17;;;28.00;99.90;;;;;;5018710;28;20213;-72
2023/09/27 11:36:52;;;;;;;5.53;2.72;;;27.30;99.90;;;;;;5017374;28;20599;-72
2023/09/27 11:39:29;;;;;;;5.18;3.60;;;27.20;99.90;;;;;;5020171;28;20200;-71
2023/09/27 11:41:59;;;;;;;6.50;3.65;;;27.00;99.90;;;;;;5017483;28;20228;-70
2023/09/27 11:44:26;;;;;;;5.25;3.10;;;27.10;99.90;;;;;;5022444;28;20211;-72
2023/09/27 11:47:07;;;;;;;7.95;3.42;;;27.40;99.90;;;;;;5019362;28;20251;-72
2023/09/27 11:49:33;;;;;;;4.70;3.05;;;27.40;99.90;;;;;;5021160;28;20234;-72
2023/09/27 11:52:10;;;;;;;5.75;3.17;;;27.30;99.90;;;;;;5019810;28;20213;-72
2023/09/27 11:54:41;;;;;;;4.95;2.60;;;27.60;99.90;;;;;;5020758;28;20188;-72
2023/09/27 11:57:07;;;;;;;3.33;3.00;;;27.30;99.90;;;;;;5020406;28;20263;-72
2023/09/27 11:59:33;;;;;;;4.50;3.35;;;27.50;99.90;;;;;;5018635;28;20240;-72
2023/09/27 12:01:59;;;;;;;6.38;2.80;;;27.60;99.90;;;;;;5016637;28;20252;-72
2023/09/27 12:04:24;;;;;;;6.45;3.50;;;27.40;99.90;;;;;;5021408;28;20254;-72
2023/09/27 12:06:50;;;;;;;6.07;3.13;;;27.40;99.90;;;;;;5021391;28;20291;-70
2023/09/27 12:09:15;;;;;;;7.18;3.55;;;27.20;99.90;;;;;;5018431;28;20185;-72
2023/09/27 12:11:41;;;;;;;5.60;3.33;;;27.20;99.90;;;;;;5021674;28;20209;-72
2023/09/27 12:14:07;;;;;;;6.93;3.60;;;27.30;99.90;;;;;;5018495;28;20209;-72
2023/09/27 12:16:33;;;;;;;7.07;3.42;;;27.70;99.90;;;;;;5020477;28;20746;-72
2023/09/27 12:18:59;;;;;;;5.05;3.47;;;27.90;99.90;;;;;;5018848;28;20224;-71
2023/09/27 12:21:24;;;;;;;4.72;2.83;;;28.00;99.90;;;;;;5022091;28;20188;-72
2023/09/27 12:23:50;;;;;;;4.60;3.97;;;28.10;99.90;;;;;;5018428;28;20694;-70
2023/09/27 12:26:15;;;;;;;5.15;3.45;;;28.10;99.90;;;;;;5020053;28;20217;-72
2023/09/27 12:28:42;;;;;;;8.18;5.38;;;28.10;99.90;;;;;;5019374;28;20211;-72
2023/09/27 12:31:08;;;;;;;7.68;3.60;;;28.30;99.90;;;;;;5016657;28;20212;-72
2023/09/27 12:33:35;;;;;;;6.60;3.30;;;28.30;99.90;;;;;;5015333;28;20678;-71
2023/09/27 12:36:01;;;;;;;5.80;3.53;;;28.10;99.90;;;;;;5019790;28;20180;-70
2023/09/27 12:38:27;;;;;;;5.97;3.00;;;28.10;99.90;;;;;;5018036;28;20205;-72